createdAt,value
2023-04-09T00:01:07.887Z,95433.91
2023-04-09T00:03:36.489Z,95433.97
2023-04-09T00:06:06.477Z,95433.16
2023-04-09T00:08:34.729Z,95436.38
2023-04-09T00:11:02.673Z,95444.75
2023-04-09T00:16:01.781Z,95436.34
2023-04-09T00:18:29.792Z,95433.16
2023-04-09T00:20:57.651Z,95419.34
2023-04-09T00:23:27.018Z,95431.97
2023-04-09T00:25:54.941Z,95435.16
2023-04-09T00:28:22.872Z,95434.75
2023-04-09T00:30:50.914Z,95428.31
2023-04-09T00:33:18.911Z,95426.28
2023-04-09T00:35:46.878Z,95424.72
2023-04-09T00:38:14.933Z,95431.16
2023-04-09T00:40:44.391Z,95423.13
2023-04-09T00:43:12.306Z,95422.31
2023-04-09T00:45:40.521Z,95413.13
2023-04-09T00:48:08.774Z,95420.38
2023-04-09T00:50:37.235Z,95420.38
2023-04-09T00:53:06.825Z,95422.38
2023-04-09T00:55:35.500Z,95424.72
2023-04-09T00:58:04.785Z,95418.31
2023-04-09T01:00:32.721Z,95426.72
2023-04-09T01:03:01.886Z,95416.31
2023-04-09T01:05:35.625Z,95425.13
2023-04-09T01:08:13.624Z,95423.13
2023-04-09T01:10:48.200Z,95426.88
2023-04-09T01:13:25.124Z,95427.09
2023-04-09T01:15:57.934Z,95425.09
2023-04-09T01:18:30.696Z,95432.28
2023-04-09T01:21:03.340Z,95423.53
2023-04-09T01:23:46.352Z,95422.69
2023-04-09T01:26:30.458Z,95428.69
2023-04-09T01:29:01.421Z,95424.09
2023-04-09T01:31:32.205Z,95424.28
2023-04-09T01:34:02.176Z,95427.47
2023-04-09T01:36:32.385Z,95421.88
2023-04-09T01:39:02.565Z,95423.84
2023-04-09T01:41:33.545Z,95422.03
2023-04-09T01:44:04.763Z,95417.84
2023-04-09T01:46:34.749Z,95424.25
2023-04-09T01:49:03.300Z,95421.03
2023-04-09T01:51:32.611Z,95421.84
2023-04-09T01:54:01.769Z,95429.84
2023-04-09T01:56:29.760Z,95424.63
2023-04-09T01:58:57.659Z,95424.03
2023-04-09T02:01:37.148Z,95423.84
2023-04-09T02:04:11.009Z,95421.44
2023-04-09T02:06:43.377Z,95420.00
2023-04-09T02:09:13.068Z,95420.59
2023-04-09T02:11:43.387Z,95415.03
2023-04-09T02:14:13.553Z,95416.25
2023-04-09T02:16:43.353Z,95425.03
2023-04-09T02:19:12.043Z,95418.25
2023-04-09T02:21:39.967Z,95424.63
2023-04-09T02:24:07.934Z,95425.84
2023-04-09T02:26:35.925Z,95425.44
2023-04-09T02:29:04.572Z,95428.19
2023-04-09T02:31:32.637Z,95434.97
2023-04-09T02:34:02.025Z,95425.78
2023-04-09T02:36:29.934Z,95428.97
2023-04-09T02:38:57.913Z,95434.09
2023-04-09T02:41:25.924Z,95434.88
2023-04-09T02:43:53.861Z,95433.28
2023-04-09T02:46:22.147Z,95430.47
2023-04-09T02:48:50.340Z,95440.41
2023-04-09T02:51:19.980Z,95437.03
2023-04-09T02:53:47.936Z,95432.47
2023-04-09T02:56:15.932Z,95438.00
2023-04-09T02:58:43.862Z,95428.25
2023-04-09T03:01:11.869Z,95426.44
2023-04-09T03:03:42.209Z,95432.47
2023-04-09T03:06:10.663Z,95425.28
2023-04-09T03:08:40.002Z,95425.47
2023-04-09T03:11:08.110Z,95430.09
2023-04-09T03:13:36.029Z,95420.50
2023-04-09T03:16:03.995Z,95424.50
2023-04-09T03:18:31.983Z,95416.53
2023-04-09T03:21:01.154Z,95418.72
2023-04-09T03:23:34.408Z,95419.72
2023-04-09T03:26:06.006Z,95422.09
2023-04-09T03:28:41.660Z,95417.63
2023-04-09T03:31:09.648Z,95416.81
2023-04-09T03:33:41.213Z,95419.03
2023-04-09T03:36:10.043Z,95412.22
2023-04-09T03:38:58.368Z,95418.41
2023-04-09T03:41:32.809Z,95422.00
2023-04-09T03:44:04.409Z,95423.63
2023-04-09T03:46:39.980Z,95411.63
2023-04-09T03:49:10.040Z,95408.44
2023-04-09T03:51:42.608Z,95417.22
2023-04-09T03:54:10.564Z,95420.56
2023-04-09T03:56:41.019Z,95419.94
2023-04-09T03:59:12.364Z,95423.91
2023-04-09T04:01:43.600Z,95417.50
2023-04-09T04:04:11.955Z,95424.69
2023-04-09T04:06:47.444Z,95423.09
2023-04-09T04:09:20.990Z,95419.38
2023-04-09T04:11:57.034Z,95424.59
2023-04-09T04:14:28.905Z,95416.31
2023-04-09T04:17:04.040Z,95429.06
2023-04-09T04:19:32.790Z,95427.06
2023-04-09T04:22:01.306Z,95438.44
2023-04-09T04:24:29.492Z,95435.84
2023-04-09T04:26:58.893Z,95438.94
2023-04-09T04:29:32.411Z,95442.91
2023-04-09T04:32:02.403Z,95441.69
2023-04-09T04:34:36.167Z,95443.69
2023-04-09T04:37:14.922Z,95452.09
2023-04-09T04:39:42.922Z,95446.31
2023-04-09T04:42:16.983Z,95447.34
2023-04-09T04:44:46.209Z,95450.91
2023-04-09T04:47:30.212Z,95455.72
2023-04-09T04:49:59.784Z,95456.13
2023-04-09T04:52:27.883Z,95462.91
2023-04-09T04:54:55.875Z,95460.88
2023-04-09T04:57:26.735Z,95463.66
2023-04-09T04:59:55.358Z,95467.25
2023-04-09T05:02:23.453Z,95465.75
2023-04-09T05:05:11.681Z,95474.91
2023-04-09T05:07:45.821Z,95468.75
2023-04-09T05:10:13.852Z,95472.22
2023-04-09T05:12:45.188Z,95476.13
2023-04-09T05:15:20.214Z,95472.69
2023-04-09T05:17:48.163Z,95479.88
2023-04-09T05:20:17.705Z,95478.38
2023-04-09T05:23:04.783Z,95473.53
2023-04-09T05:25:38.382Z,95473.19
2023-04-09T05:28:11.224Z,95478.38
2023-04-09T05:30:40.065Z,95475.16
2023-04-09T05:33:09.072Z,95481.22
2023-04-09T05:35:39.831Z,95470.44
2023-04-09T05:38:08.016Z,95478.66
2023-04-09T05:40:36.406Z,95482.03
2023-04-09T05:43:09.442Z,95483.94
2023-04-09T05:45:41.885Z,95487.56
2023-04-09T05:48:10.274Z,95487.69
2023-04-09T05:50:53.389Z,95473.09
2023-04-09T05:53:22.463Z,95479.66
2023-04-09T05:55:50.463Z,95481.34
2023-04-09T05:58:22.183Z,95481.25
2023-04-09T06:00:51.697Z,95483.81
2023-04-09T06:03:20.057Z,95494.56
2023-04-09T06:05:48.456Z,95491.97
2023-04-09T06:08:16.661Z,95484.94
2023-04-09T06:10:44.593Z,95491.72
2023-04-09T06:13:12.575Z,95493.44
2023-04-09T06:15:42.016Z,95499.13
2023-04-09T06:18:10.004Z,95489.47
2023-04-09T06:20:38.004Z,95492.69
2023-04-09T06:23:06.280Z,95491.34
2023-04-09T06:25:34.380Z,95490.13
2023-04-09T06:28:03.077Z,95493.31
2023-04-09T06:30:32.111Z,95487.03
2023-04-09T06:33:01.457Z,95499.97
2023-04-09T06:35:29.407Z,95494.78
2023-04-09T06:37:57.386Z,95497.59
2023-04-09T06:40:25.310Z,95501.53
2023-04-09T06:42:53.201Z,95505.72
2023-04-09T06:45:25.432Z,95503.38
2023-04-09T06:47:53.562Z,95511.09
2023-04-09T06:50:22.874Z,95507.59
2023-04-09T06:52:50.852Z,95511.16
2023-04-09T06:55:18.896Z,95505.97
2023-04-09T06:57:46.883Z,95516.06
2023-04-09T07:00:15.592Z,95520.91
2023-04-09T07:02:43.747Z,95518.56
2023-04-09T07:05:11.933Z,95515.34
2023-04-09T07:07:41.246Z,95516.84
2023-04-09T07:10:10.210Z,95511.91
2023-04-09T07:12:38.141Z,95506.38
2023-04-09T07:15:07.644Z,95508.19
2023-04-09T07:17:36.258Z,95496.72
2023-04-09T07:20:04.541Z,95499.09
2023-04-09T07:22:32.426Z,95505.72
2023-04-09T07:25:01.767Z,95504.38
2023-04-09T07:27:30.268Z,95499.59
2023-04-09T07:29:59.026Z,95505.59
2023-04-09T07:32:28.562Z,95501.59
2023-04-09T07:34:57.395Z,95499.59
2023-04-09T07:37:25.371Z,95505.19
2023-04-09T07:39:53.502Z,95502.75
2023-04-09T07:42:22.960Z,95501.97
2023-04-09T07:44:51.449Z,95497.94
2023-04-09T07:47:19.355Z,95506.38
2023-04-09T07:49:47.252Z,95497.97
2023-04-09T07:52:15.436Z,95501.19
2023-04-09T07:54:43.308Z,95503.59
2023-04-09T07:57:11.320Z,95504.38
2023-04-09T07:59:40.624Z,95503.59
2023-04-09T08:02:08.988Z,95505.56
2023-04-09T08:04:37.183Z,95496.50
2023-04-09T08:07:05.428Z,95505.72
2023-04-09T08:09:33.492Z,95515.75
2023-04-09T08:12:01.425Z,95509.91
2023-04-09T08:14:29.368Z,95516.66
2023-04-09T08:16:58.691Z,95519.47
2023-04-09T08:19:26.706Z,95522.66
2023-04-09T08:21:54.615Z,95520.25
2023-04-09T08:24:22.592Z,95524.59
2023-04-09T08:26:50.526Z,95526.06
2023-04-09T08:29:18.591Z,95532.53
2023-04-09T08:31:46.535Z,95535.56
2023-04-09T08:34:17.446Z,95522.88
2023-04-09T08:36:47.326Z,95522.00
2023-04-09T08:39:16.458Z,95529.19
2023-04-09T08:41:45.060Z,95533.28
2023-04-09T08:44:13.341Z,95535.50
2023-04-09T08:46:41.401Z,95526.66
2023-04-09T08:49:10.247Z,95538.53
2023-04-09T08:51:40.381Z,95533.91
2023-04-09T08:54:08.547Z,95539.94
2023-04-09T08:56:36.844Z,95535.72
2023-04-09T08:59:05.529Z,95526.06
2023-04-09T09:01:34.056Z,95533.13
2023-04-09T09:04:04.161Z,95528.25
2023-04-09T09:06:34.148Z,95525.50
2023-04-09T09:09:06.641Z,95530.72
2023-04-09T09:11:35.452Z,95528.13
2023-04-09T09:14:04.907Z,95531.09
2023-04-09T09:16:34.820Z,95523.16
2023-04-09T09:19:03.609Z,95522.16
2023-04-09T09:21:31.655Z,95514.84
2023-04-09T09:23:59.663Z,95513.91
2023-04-09T09:26:30.426Z,95519.19
2023-04-09T09:28:59.434Z,95514.56
2023-04-09T09:31:27.916Z,95515.91
2023-04-09T09:33:56.503Z,95520.41
2023-04-09T09:36:34.664Z,95514.63
2023-04-09T09:39:08.305Z,95520.16
2023-04-09T09:41:38.026Z,95515.22
2023-04-09T09:44:07.262Z,95517.16
2023-04-09T09:46:37.350Z,95513.19
2023-04-09T09:49:05.880Z,95510.31
2023-04-09T09:51:36.935Z,95506.09
2023-04-09T09:54:08.089Z,95508.00
2023-04-09T09:56:42.677Z,95496.38
2023-04-09T09:59:17.852Z,95493.91
2023-04-09T10:01:48.388Z,95507.44
2023-04-09T10:04:17.525Z,95504.78
2023-04-09T10:06:46.515Z,95499.69
2023-04-09T10:09:14.836Z,95504.50
2023-04-09T10:11:45.654Z,95507.78
2023-04-09T10:14:14.788Z,95504.94
2023-04-09T10:16:43.023Z,95499.97
2023-04-09T10:19:14.215Z,95498.38
2023-04-09T10:21:47.709Z,95501.75
2023-04-09T10:24:17.158Z,95490.25
2023-04-09T10:26:46.983Z,95488.63
2023-04-09T10:29:16.689Z,95477.38
2023-04-09T10:31:50.019Z,95491.03
2023-04-09T10:34:19.518Z,95481.91
2023-04-09T10:36:53.041Z,95479.97
2023-04-09T10:39:21.456Z,95476.47
2023-04-09T10:41:51.515Z,95475.59
2023-04-09T10:44:23.184Z,95470.34
2023-04-09T10:46:51.399Z,95478.31
2023-04-09T10:49:21.004Z,95473.53
2023-04-09T10:52:04.645Z,95468.53
2023-04-09T10:54:43.595Z,95466.19
2023-04-09T10:57:14.699Z,95461.06
2023-04-09T10:59:45.134Z,95469.28
2023-04-09T11:02:44.054Z,95460.13
2023-04-09T11:05:20.943Z,95469.59
2023-04-09T11:07:58.569Z,95456.50
2023-04-09T11:10:26.819Z,95458.53
2023-04-09T11:12:56.135Z,95458.53
2023-04-09T11:15:24.041Z,95459.69
2023-04-09T11:17:52.121Z,95448.53
2023-04-09T11:20:23.610Z,95448.34
2023-04-09T11:22:53.144Z,95443.53
2023-04-09T11:25:22.141Z,95444.22
2023-04-09T11:27:50.917Z,95440.09
2023-04-09T11:30:21.381Z,95434.19
2023-04-09T11:32:49.911Z,95436.22
2023-04-09T11:35:19.258Z,95435.69
2023-04-09T11:37:48.108Z,95437.50
2023-04-09T11:40:17.809Z,95440.22
2023-04-09T11:42:46.625Z,95434.50
2023-04-09T11:45:16.268Z,95430.38
2023-04-09T11:47:46.777Z,95431.47
2023-04-09T11:50:16.274Z,95426.94
2023-04-09T11:52:45.765Z,95423.91
2023-04-09T11:55:23.259Z,95417.72
2023-04-09T11:57:53.150Z,95417.63
2023-04-09T12:00:21.697Z,95418.47
2023-04-09T12:02:52.179Z,95422.34
2023-04-09T12:05:24.775Z,95408.66
2023-04-09T12:07:56.576Z,95407.97
2023-04-09T12:10:29.042Z,95407.03
2023-04-09T12:13:02.464Z,95408.78
2023-04-09T12:15:33.737Z,95397.28
2023-04-09T12:18:03.676Z,95400.31
2023-04-09T12:20:34.509Z,95408.25
2023-04-09T12:23:03.909Z,95406.19
2023-04-09T12:25:32.468Z,95409.72
2023-04-09T12:28:00.542Z,95416.09
2023-04-09T12:30:28.562Z,95418.00
2023-04-09T12:32:57.070Z,95405.91
2023-04-09T12:35:26.978Z,95402.81
2023-04-09T12:37:54.891Z,95397.97
2023-04-09T12:40:23.515Z,95399.34
2023-04-09T12:42:51.725Z,95402.13
2023-04-09T12:45:21.158Z,95402.44
2023-04-09T12:47:49.465Z,95400.38
2023-04-09T12:50:17.822Z,95393.22
2023-04-09T12:52:47.221Z,95400.25
2023-04-09T12:55:16.140Z,95398.00
2023-04-09T12:57:45.844Z,95388.81
2023-04-09T13:00:14.988Z,95402.81
2023-04-09T13:02:43.141Z,95405.06
2023-04-09T13:05:11.544Z,95396.13
2023-04-09T13:07:41.497Z,95404.28
2023-04-09T13:10:12.232Z,95393.75
2023-04-09T13:12:40.211Z,95390.72
2023-04-09T13:15:08.697Z,95382.91
2023-04-09T13:17:36.662Z,95394.50
2023-04-09T13:20:05.094Z,95388.88
2023-04-09T13:22:33.024Z,95386.56
2023-04-09T13:25:01.118Z,95382.56
2023-04-09T13:27:30.438Z,95383.97
2023-04-09T13:29:58.388Z,95379.00
2023-04-09T13:32:26.776Z,95385.16
2023-04-09T13:34:57.923Z,95379.69
2023-04-09T13:37:26.483Z,95370.41
2023-04-09T13:39:55.604Z,95367.66
2023-04-09T13:42:24.009Z,95362.00
2023-04-09T13:44:53.738Z,95368.41
2023-04-09T13:47:23.956Z,95358.50
2023-04-09T13:49:53.134Z,95354.81
2023-04-09T13:52:21.181Z,95359.97
2023-04-09T13:54:49.525Z,95363.28
2023-04-09T13:57:17.880Z,95352.81
2023-04-09T13:59:45.862Z,95349.34
2023-04-09T14:02:15.442Z,95352.31
2023-04-09T14:04:43.540Z,95346.47
2023-04-09T14:07:11.654Z,95340.50
2023-04-09T14:09:39.603Z,95347.44
2023-04-09T14:12:07.601Z,95340.63
2023-04-09T14:14:35.655Z,95345.69
2023-04-09T14:17:03.545Z,95342.28
2023-04-09T14:19:32.819Z,95334.88
2023-04-09T14:22:00.850Z,95335.94
2023-04-09T14:24:28.770Z,95336.03
2023-04-09T14:26:56.903Z,95331.34
2023-04-09T14:29:24.834Z,95334.00
2023-04-09T14:31:54.242Z,95337.16
2023-04-09T14:34:23.190Z,95332.69
2023-04-09T14:36:52.460Z,95324.00
2023-04-09T14:39:20.463Z,95324.25
2023-04-09T14:41:48.425Z,95325.56
2023-04-09T14:44:16.334Z,95314.50
2023-04-09T14:46:44.600Z,95323.22
2023-04-09T14:49:12.569Z,95327.41
2023-04-09T14:51:40.663Z,95319.22
2023-04-09T14:54:09.986Z,95319.72
2023-04-09T14:56:37.909Z,95316.75
2023-04-09T14:59:05.903Z,95322.13
2023-04-09T15:01:33.894Z,95321.59
2023-04-09T15:04:01.909Z,95317.88
2023-04-09T15:06:31.379Z,95332.94
2023-04-09T15:08:59.278Z,95320.78
2023-04-09T15:11:29.458Z,95317.56
2023-04-09T15:13:57.995Z,95324.88
2023-04-09T15:16:28.072Z,95322.38
2023-04-09T15:18:58.860Z,95326.06
2023-04-09T15:21:28.540Z,95319.19
2023-04-09T15:23:58.934Z,95320.25
2023-04-09T15:26:29.054Z,95316.50
2023-04-09T15:29:02.345Z,95321.19
2023-04-09T15:31:30.624Z,95318.88
2023-04-09T15:33:58.666Z,95320.22
2023-04-09T15:36:27.136Z,95317.53
2023-04-09T15:38:55.403Z,95315.94
2023-04-09T15:41:24.005Z,95319.59
2023-04-09T15:43:53.704Z,95318.78
2023-04-09T15:46:21.901Z,95318.81
2023-04-09T15:48:49.898Z,95309.09
2023-04-09T15:51:17.850Z,95322.63
2023-04-09T15:53:45.945Z,95320.25
2023-04-09T15:56:15.274Z,95319.13
2023-04-09T15:58:43.894Z,95314.91
2023-04-09T16:01:13.531Z,95320.53
2023-04-09T16:03:41.742Z,95320.25
2023-04-09T16:06:13.369Z,95319.72
2023-04-09T16:08:41.469Z,95324.50
2023-04-09T16:11:09.587Z,95325.00
2023-04-09T16:13:38.028Z,95326.78
2023-04-09T16:16:07.541Z,95335.03
2023-04-09T16:18:37.539Z,95324.75
2023-04-09T16:21:06.059Z,95330.28
2023-04-09T16:23:34.079Z,95328.63
2023-04-09T16:26:02.023Z,95325.22
2023-04-09T16:28:30.162Z,95324.50
2023-04-09T16:30:58.177Z,95322.66
2023-04-09T16:33:26.290Z,95325.84
2023-04-09T16:35:55.576Z,95319.78
2023-04-09T16:38:24.712Z,95318.47
2023-04-09T16:40:52.633Z,95326.66
2023-04-09T16:43:20.550Z,95330.84
2023-04-09T16:45:48.483Z,95328.22
2023-04-09T16:48:16.459Z,95326.66
2023-04-09T16:50:44.419Z,95324.28
2023-04-09T16:53:13.708Z,95320.84
2023-04-09T16:55:41.646Z,95327.19
2023-04-09T16:58:09.542Z,95327.97
2023-04-09T17:00:37.621Z,95327.16
2023-04-09T17:03:05.606Z,95330.84
2023-04-09T17:05:33.865Z,95327.66
2023-04-09T17:08:01.918Z,95330.81
2023-04-09T17:10:31.300Z,95329.81
2023-04-09T17:12:59.222Z,95330.06
2023-04-09T17:15:27.315Z,95327.16
2023-04-09T17:17:55.311Z,95328.72
2023-04-09T17:20:24.948Z,95329.69
2023-04-09T17:22:53.036Z,95333.38
2023-04-09T17:25:21.490Z,95332.31
2023-04-09T17:27:51.694Z,95341.22
2023-04-09T17:30:19.619Z,95338.00
2023-04-09T17:32:47.844Z,95339.03
2023-04-09T17:35:15.799Z,95335.22
2023-04-09T17:37:43.783Z,95334.19
2023-04-09T17:40:15.095Z,95341.59
2023-04-09T17:42:43.015Z,95339.97
2023-04-09T17:45:13.082Z,95340.91
2023-04-09T17:47:41.263Z,95340.19
2023-04-09T17:50:10.390Z,95341.13
2023-04-09T17:52:38.854Z,95340.53
2023-04-09T17:55:08.132Z,95341.44
2023-04-09T17:57:36.614Z,95349.78
2023-04-09T18:00:05.205Z,95352.88
2023-04-09T18:02:35.275Z,95349.41
2023-04-09T18:05:04.860Z,95352.31
2023-04-09T18:07:34.402Z,95357.59
2023-04-09T18:10:02.928Z,95358.53
2023-04-09T18:12:30.930Z,95360.13
2023-04-09T18:14:58.815Z,95367.97
2023-04-09T18:17:27.289Z,95372.13
2023-04-09T18:19:58.459Z,95377.56
2023-04-09T18:22:26.963Z,95373.50
2023-04-09T18:24:55.281Z,95372.84
2023-04-09T18:27:23.223Z,95372.53
2023-04-09T18:29:51.118Z,95387.41
2023-04-09T18:32:20.205Z,95385.22
2023-04-09T18:34:48.614Z,95383.56
2023-04-09T18:37:17.904Z,95388.03
2023-04-09T18:39:46.031Z,95396.28
2023-04-09T18:42:14.477Z,95395.66
2023-04-09T18:44:42.622Z,95395.94
2023-04-09T18:47:11.872Z,95394.19
2023-04-09T18:49:39.781Z,95399.13
2023-04-09T18:52:09.219Z,95404.31
2023-04-09T18:54:38.960Z,95402.59
2023-04-09T18:57:07.461Z,95408.09
2023-04-09T18:59:35.879Z,95414.63
2023-04-09T19:02:05.035Z,95414.81
2023-04-09T19:04:36.329Z,95416.22
2023-04-09T19:07:04.598Z,95417.16
2023-04-09T19:09:33.146Z,95421.28
2023-04-09T19:12:02.756Z,95424.78
2023-04-09T19:14:30.693Z,95429.72
2023-04-09T19:16:58.775Z,95428.06
2023-04-09T19:19:27.436Z,95434.78
2023-04-09T19:21:55.366Z,95429.53
2023-04-09T19:24:23.656Z,95437.28
2023-04-09T19:26:53.039Z,95442.34
2023-04-09T19:29:22.295Z,95438.69
2023-04-09T19:31:50.466Z,95446.66
2023-04-09T19:34:18.442Z,95445.28
2023-04-09T19:36:46.304Z,95445.53
2023-04-09T19:39:15.216Z,95455.38
2023-04-09T19:41:43.192Z,95456.50
2023-04-09T19:44:11.401Z,95456.50
2023-04-09T19:46:41.027Z,95456.97
2023-04-09T19:49:09.067Z,95460.25
2023-04-09T19:51:36.973Z,95460.72
2023-04-09T19:54:05.073Z,95457.06
2023-04-09T19:56:33.098Z,95457.84
2023-04-09T19:59:01.031Z,95457.19
2023-04-09T20:01:29.109Z,95453.53
2023-04-09T20:03:58.626Z,95447.84
2023-04-09T20:06:27.157Z,95453.53
2023-04-09T20:08:56.031Z,95459.72
2023-04-09T20:11:24.041Z,95456.53
2023-04-09T20:13:52.050Z,95465.84
2023-04-09T20:16:20.179Z,95465.06
2023-04-09T20:18:48.151Z,95472.78
2023-04-09T20:21:17.611Z,95475.41
2023-04-09T20:23:46.364Z,95469.34
2023-04-09T20:26:14.396Z,95465.84
2023-04-09T20:28:42.320Z,95467.66
2023-04-09T20:31:10.249Z,95474.78
2023-04-09T20:33:38.158Z,95474.00
2023-04-09T20:36:15.284Z,95471.81
2023-04-09T20:38:44.622Z,95470.53
2023-04-09T20:41:12.568Z,95475.06
2023-04-09T20:43:40.540Z,95475.88
2023-04-09T20:46:08.540Z,95477.34
2023-04-09T20:48:36.578Z,95480.03
2023-04-09T20:51:09.210Z,95480.47
2023-04-09T20:53:37.553Z,95479.47
2023-04-09T20:56:07.397Z,95473.66
2023-04-09T20:58:35.548Z,95481.94
2023-04-09T21:01:06.497Z,95472.38
2023-04-09T21:03:34.961Z,95475.59
2023-04-09T21:06:03.354Z,95473.88
2023-04-09T21:08:31.437Z,95475.16
2023-04-09T21:10:59.635Z,95480.81
2023-04-09T21:13:28.909Z,95477.19
2023-04-09T21:15:58.113Z,95477.63
2023-04-09T21:18:26.228Z,95476.03
2023-04-09T21:20:54.112Z,95477.75
2023-04-09T21:23:22.161Z,95479.81
2023-04-09T21:25:50.057Z,95478.78
2023-04-09T21:28:18.088Z,95480.13
2023-04-09T21:30:47.778Z,95479.81
2023-04-09T21:33:15.791Z,95477.34
2023-04-09T21:35:43.697Z,95480.38
2023-04-09T21:38:11.654Z,95483.13
2023-04-09T21:40:39.607Z,95474.31
2023-04-09T21:43:08.831Z,95481.97
2023-04-09T21:45:36.754Z,95480.16
2023-04-09T21:48:06.368Z,95480.53
2023-04-09T21:50:34.268Z,95486.06
2023-04-09T21:53:03.200Z,95486.41
2023-04-09T21:55:31.297Z,95485.09
2023-04-09T21:57:59.193Z,95485.97
2023-04-09T22:00:27.615Z,95491.34
2023-04-09T22:03:00.981Z,95494.25
2023-04-09T22:05:31.081Z,95492.22
2023-04-09T22:07:59.175Z,95488.19
2023-04-09T22:10:28.247Z,95496.47
2023-04-09T22:12:56.465Z,95492.44
2023-04-09T22:15:24.471Z,95500.28
2023-04-09T22:17:52.848Z,95501.66
2023-04-09T22:20:21.237Z,95510.56
2023-04-09T22:22:50.533Z,95506.63
2023-04-09T22:25:18.452Z,95508.06
2023-04-09T22:27:50.612Z,95495.06
2023-04-09T22:30:18.625Z,95504.69
2023-04-09T22:32:46.577Z,95507.75
2023-04-09T22:35:18.086Z,95509.94
2023-04-09T22:37:47.248Z,95504.84
2023-04-09T22:40:17.288Z,95516.91
2023-04-09T22:42:47.215Z,95513.81
2023-04-09T22:45:15.730Z,95507.31
2023-04-09T22:47:43.770Z,95513.56
2023-04-09T22:50:13.515Z,95511.22
2023-04-09T22:52:41.485Z,95512.06
2023-04-09T22:55:11.034Z,95515.16
2023-04-09T22:57:43.025Z,95517.53
2023-04-09T23:00:11.541Z,95515.38
2023-04-09T23:02:39.615Z,95518.56
2023-04-09T23:05:08.950Z,95519.34
2023-04-09T23:07:36.946Z,95523.78
2023-04-09T23:10:05.100Z,95520.16
2023-04-09T23:12:33.024Z,95522.81
2023-04-09T23:15:02.412Z,95514.41
2023-04-09T23:17:30.488Z,95519.84
2023-04-09T23:19:58.419Z,95520.63
2023-04-09T23:22:27.319Z,95516.38
2023-04-09T23:24:55.395Z,95517.38
2023-04-09T23:27:28.245Z,95514.63
2023-04-09T23:29:56.628Z,95518.31
2023-04-09T23:32:25.948Z,95520.78
2023-04-09T23:34:53.904Z,95526.72
2023-04-09T23:37:21.849Z,95520.78
2023-04-09T23:39:49.833Z,95524.88
2023-04-09T23:42:17.797Z,95519.22
2023-04-09T23:44:45.743Z,95512.41
2023-04-09T23:47:14.084Z,95512.41
2023-04-09T23:49:43.822Z,95509.56
2023-04-09T23:52:11.706Z,95515.97
2023-04-09T23:54:39.626Z,95503.59
2023-04-09T23:57:07.565Z,95502.41
2023-04-09T23:59:36.009Z,95506.88
